Time;durP1;ratioP1;P1;durP2;ratioP2;P2;SDS_P1;SDS_P2;PMS_P1;PMS_P2;Temp;Humidity;BMP_temperature;BMP_pressure;BME280_temperature;BME280_humidity;BME280_pressure;Samples;Min_cycle;Max_cycle;Signal;HPM_P1;HPM_P2
2024/01/24 00:02:22;;;;;;;0.90;0.90;;;;;;;-2.29;nan;100486.72;5076723;28;20221;-63
2024/01/24 00:04:48;;;;;;;0.60;0.60;;;;;;;-2.36;nan;100493.97;5072679;28;20300;-64
2024/01/24 00:07:15;;;;;;;0.90;0.90;;;;;;;-2.35;nan;100489.00;5072706;28;20246;-64
2024/01/24 00:09:42;;;;;;;3.90;1.43;;;;;;;-2.42;nan;100491.22;5072212;28;20200;-64
2024/01/24 00:12:09;;;;;;;0.97;0.97;;;;;;;-2.41;nan;100493.78;5072456;28;20196;-64
2024/01/24 00:14:36;;;;;;;0.90;0.90;;;;;;;-2.39;nan;100487.16;5071253;28;20196;-64
2024/01/24 00:17:03;;;;;;;1.20;1.20;;;;;;;-2.30;nan;100490.03;5073082;28;20196;-64
2024/01/24 00:19:31;;;;;;;2.03;2.03;;;;;;;-2.31;nan;100490.84;5073112;28;20203;-64
2024/01/24 00:21:57;;;;;;;1.30;1.30;;;;;;;-2.27;nan;100487.66;5069887;28;20200;-64
2024/01/24 00:24:24;;;;;;;1.00;1.00;;;;;;;-2.35;nan;100483.09;5072046;28;20261;-64
2024/01/24 00:26:51;;;;;;;0.73;0.73;;;;;;;-2.73;nan;100514.25;5067624;28;20637;-62
2024/01/24 00:29:17;;;;;;;1.40;1.40;;;;;;;-3.11;nan;100509.31;5072245;28;20204;-64
2024/01/24 00:31:46;;;;;;;1.00;1.00;;;;;;;-3.03;nan;100500.44;5071987;28;20246;-64
2024/01/24 00:34:12;;;;;;;1.27;1.27;;;;;;;-2.87;nan;100495.25;5071804;28;20224;-64
2024/01/24 00:36:40;;;;;;;1.00;1.00;;;;;;;-2.73;nan;100505.06;5071850;28;20265;-64
2024/01/24 00:39:07;;;;;;;1.03;1.03;;;;;;;-2.60;nan;100500.53;5069655;28;20250;-63
2024/01/24 00:41:34;;;;;;;0.90;0.90;;;;;;;-2.53;nan;100493.31;5071705;28;20204;-64
2024/01/24 00:44:01;;;;;;;1.10;1.10;;;;;;;-2.43;nan;100502.06;5071719;28;20265;-64
2024/01/24 00:46:28;;;;;;;0.90;0.90;;;;;;;-2.36;nan;100497.31;5071681;28;20204;-64
2024/01/24 00:48:54;;;;;;;0.80;0.80;;;;;;;-2.33;nan;100492.44;5071668;28;20246;-64
2024/01/24 00:51:21;;;;;;;1.43;1.43;;;;;;;-2.28;nan;100490.09;5071545;28;20192;-64
2024/01/24 00:53:52;;;;;;;0.90;0.90;;;;;;;-2.24;nan;100487.75;5071655;28;21635;-64
2024/01/24 00:56:18;;;;;;;0.97;0.97;;;;;;;-2.17;nan;100484.69;5071744;28;20234;-64
2024/01/24 00:58:45;;;;;;;0.70;0.70;;;;;;;-2.14;nan;100492.34;5071930;28;20281;-64
2024/01/24 01:01:12;;;;;;;0.90;0.90;;;;;;;-2.14;nan;100484.81;5071364;28;20204;-64
2024/01/24 01:03:39;;;;;;;0.80;0.80;;;;;;;-2.07;nan;100492.56;5071533;28;20212;-64
2024/01/24 01:06:06;;;;;;;0.80;0.80;;;;;;;-2.02;nan;100491.06;5071056;28;20196;-64
2024/01/24 01:08:33;;;;;;;1.00;1.00;;;;;;;-2.08;nan;100488.34;5071654;28;20675;-64
2024/01/24 01:11:01;;;;;;;0.80;0.80;;;;;;;-2.16;nan;100486.38;5071148;28;20204;-64
2024/01/24 01:13:28;;;;;;;0.90;0.90;;;;;;;-2.16;nan;100486.38;5071275;28;20257;-64
2024/01/24 01:15:54;;;;;;;0.87;0.87;;;;;;;-2.26;nan;100481.81;5071172;28;20221;-64
2024/01/24 01:18:21;;;;;;;0.80;0.80;;;;;;;-2.29;nan;100479.19;5070849;28;20205;-63
2024/01/24 01:20:48;;;;;;;1.43;1.43;;;;;;;-2.30;nan;100481.66;5071215;28;20204;-64
2024/01/24 01:23:14;;;;;;;0.80;0.80;;;;;;;-2.32;nan;100484.09;5070968;28;20192;-64
2024/01/24 01:25:41;;;;;;;0.70;0.70;;;;;;;-2.34;nan;100493.22;5071035;28;20196;-64
2024/01/24 01:28:09;;;;;;;0.80;0.80;;;;;;;-2.35;nan;100491.50;5070612;28;20254;-64
2024/01/24 01:30:36;;;;;;;1.00;1.00;;;;;;;-2.39;nan;100487.16;5070826;28;20262;-64
2024/01/24 01:33:03;;;;;;;1.03;1.03;;;;;;;-2.42;nan;100477.00;5070969;28;20285;-63
2024/01/24 01:35:29;;;;;;;1.03;1.03;;;;;;;-2.33;nan;100492.44;5070694;28;20285;-64
2024/01/24 01:37:56;;;;;;;1.00;1.00;;;;;;;-2.32;nan;100479.06;5071279;28;20552;-64
2024/01/24 01:40:23;;;;;;;0.80;0.80;;;;;;;-2.34;nan;100480.69;5070677;28;20196;-63
2024/01/24 01:42:50;;;;;;;1.37;1.37;;;;;;;-2.29;nan;100486.72;5071199;28;20560;-64
2024/01/24 01:45:19;;;;;;;0.97;0.97;;;;;;;-2.26;nan;100486.81;5070167;28;20223;-63
2024/01/24 01:47:48;;;;;;;1.10;1.10;;;;;;;-2.25;nan;100476.00;5070557;28;20573;-64
2024/01/24 01:50:16;;;;;;;0.90;0.90;;;;;;;-2.22;nan;100476.09;5070517;28;20584;-64
2024/01/24 01:52:44;;;;;;;0.83;0.83;;;;;;;-2.19;nan;100475.34;5070689;28;20199;-64
2024/01/24 01:55:12;;;;;;;0.70;0.70;;;;;;;-2.19;nan;100471.19;5070511;28;20246;-64
2024/01/24 01:57:43;;;;;;;0.83;0.83;;;;;;;-2.19;nan;100478.72;5070471;28;20191;-63
2024/01/24 02:00:18;;;;;;;0.80;0.80;;;;;;;-2.18;nan;100472.91;5070240;28;20565;-63
2024/01/24 02:02:47;;;;;;;1.00;1.00;;;;;;;-2.16;nan;100470.44;5070465;28;20203;-64
2024/01/24 02:05:14;;;;;;;0.80;0.80;;;;;;;-2.17;nan;100464.59;5070324;28;20243;-64
2024/01/24 02:07:42;;;;;;;0.70;0.70;;;;;;;-2.16;nan;100466.28;5070264;28;20202;-64
2024/01/24 02:10:10;;;;;;;0.80;0.80;;;;;;;-2.18;nan;100467.91;5073045;28;20624;-64
2024/01/24 02:12:37;;;;;;;0.83;0.83;;;;;;;-2.19;nan;100463.66;5072789;28;20579;-64
2024/01/24 02:15:04;;;;;;;1.20;1.20;;;;;;;-2.16;nan;100466.28;5070029;28;20242;-64
2024/01/24 02:17:30;;;;;;;1.20;1.20;;;;;;;-2.16;nan;100476.34;5070719;28;20230;-64
2024/01/24 02:19:59;;;;;;;1.03;1.03;;;;;;;-2.16;nan;100465.44;5070014;28;20200;-64
2024/01/24 02:22:25;;;;;;;0.80;0.80;;;;;;;-2.18;nan;100472.91;5070503;28;20192;-64
2024/01/24 02:24:53;;;;;;;0.80;0.80;;;;;;;-2.17;nan;100464.59;5070010;28;20216;-64
2024/01/24 02:27:20;;;;;;;1.13;1.13;;;;;;;-2.16;nan;100468.81;5070289;28;20249;-64
2024/01/24 02:29:47;;;;;;;0.87;0.87;;;;;;;-2.23;nan;100454.28;5069859;28;20255;-64
2024/01/24 02:32:13;;;;;;;1.00;1.00;;;;;;;-2.13;nan;100470.56;5066915;28;20196;-64
2024/01/24 02:34:40;;;;;;;1.30;1.30;;;;;;;-2.13;nan;100476.44;5070102;28;20266;-64
2024/01/24 02:37:07;;;;;;;1.50;1.33;;;;;;;-2.13;nan;100476.44;5070195;28;20553;-64
2024/01/24 02:39:33;;;;;;;0.80;0.80;;;;;;;-2.16;nan;100466.28;5073935;28;20257;-64
2024/01/24 02:42:01;;;;;;;1.07;1.07;;;;;;;-2.15;nan;100473.03;5074143;28;20225;-64
2024/01/24 02:44:28;;;;;;;2.10;2.10;;;;;;;-2.17;nan;100467.09;5073763;28;20220;-64
2024/01/24 02:46:55;;;;;;;0.67;0.67;;;;;;;-2.14;nan;100464.72;5074198;28;20667;-64
2024/01/24 02:49:22;;;;;;;1.20;1.20;;;;;;;-2.15;nan;100465.50;5073945;28;20200;-64
2024/01/24 02:51:48;;;;;;;0.70;0.70;;;;;;;-2.11;nan;100463.97;5074279;28;20632;-64
2024/01/24 02:54:15;;;;;;;1.20;1.20;;;;;;;-2.06;nan;100469.13;5071269;28;20253;-64
2024/01/24 02:56:42;;;;;;;1.00;1.00;;;;;;;-2.01;nan;100476.06;5073993;28;20200;-64
2024/01/24 02:59:11;;;;;;;0.90;0.90;;;;;;;-2.02;nan;100468.47;5073691;28;20253;-64
2024/01/24 03:01:37;;;;;;;0.80;0.80;;;;;;;-1.93;nan;100477.19;5073869;28;20317;-64
2024/01/24 03:04:04;;;;;;;1.33;1.23;;;;;;;-1.90;nan;100473.94;5073817;28;20273;-64
2024/01/24 03:06:31;;;;;;;1.23;1.23;;;;;;;-1.90;nan;100476.44;5072147;28;20200;-64
2024/01/24 03:08:59;;;;;;;1.20;1.20;;;;;;;-1.89;nan;100475.66;5074188;28;20208;-64
2024/01/24 03:11:25;;;;;;;0.93;0.93;;;;;;;-1.87;nan;100474.03;5073232;28;20733;-64
2024/01/24 03:13:52;;;;;;;1.00;1.00;;;;;;;-1.87;nan;100474.03;5073905;28;20679;-64
2024/01/24 03:16:20;;;;;;;1.00;1.00;;;;;;;-1.84;nan;100476.69;5073194;28;20782;-64
2024/01/24 03:18:48;;;;;;;0.80;0.80;;;;;;;-1.87;nan;100476.53;5071095;28;20687;-64
2024/01/24 03:21:17;;;;;;;0.80;0.80;;;;;;;-1.88;nan;100487.41;5072922;28;20196;-64
2024/01/24 03:23:44;;;;;;;1.27;1.27;;;;;;;-1.84;nan;100484.22;5073241;28;20283;-64
2024/01/24 03:26:13;;;;;;;1.10;1.10;;;;;;;-1.87;nan;100479.91;5073198;28;20203;-64
2024/01/24 03:28:39;;;;;;;1.23;1.23;;;;;;;-1.91;nan;100482.28;5073324;28;20204;-64
2024/01/24 03:31:06;;;;;;;0.97;0.97;;;;;;;-1.88;nan;100482.41;5073301;28;20630;-64
2024/01/24 03:33:34;;;;;;;1.43;1.43;;;;;;;-1.88;nan;100487.41;5072801;28;20227;-64
2024/01/24 03:36:01;;;;;;;0.90;0.90;;;;;;;-1.89;nan;100476.50;5073262;28;20198;-64
2024/01/24 03:38:28;;;;;;;1.23;1.23;;;;;;;-1.89;nan;100491.59;5072919;28;20207;-64
2024/01/24 03:40:54;;;;;;;1.10;1.10;;;;;;;-1.93;nan;100487.25;5073341;28;20580;-64
2024/01/24 03:43:21;;;;;;;0.87;0.87;;;;;;;-2.07;nan;100485.03;5070294;28;20193;-64
2024/01/24 03:45:48;;;;;;;0.87;0.87;;;;;;;-2.02;nan;100491.94;5072911;28;20277;-64
2024/01/24 03:48:14;;;;;;;1.70;1.63;;;;;;;-2.01;nan;100495.31;5073085;28;20204;-64
2024/01/24 03:50:42;;;;;;;0.97;0.97;;;;;;;-1.99;nan;100491.19;5072540;28;20250;-64
2024/01/24 03:53:09;;;;;;;0.80;0.80;;;;;;;-2.04;nan;100477.59;5072804;28;20241;-64
2024/01/24 03:55:36;;;;;;;0.80;0.80;;;;;;;-2.02;nan;100478.50;5072939;28;20257;-64
2024/01/24 03:58:02;;;;;;;0.80;0.80;;;;;;;-1.98;nan;100481.19;5073157;28;20212;-64
2024/01/24 04:00:29;;;;;;;0.67;0.67;;;;;;;-1.96;nan;100486.25;5070052;28;20203;-64
2024/01/24 04:02:56;;;;;;;0.97;0.97;;;;;;;-1.97;nan;100492.94;5073227;28;20200;-64
2024/01/24 04:05:23;;;;;;;1.43;1.43;;;;;;;-2.13;nan;100471.44;5077460;28;20691;-64
2024/01/24 04:07:51;;;;;;;1.13;1.13;;;;;;;-1.99;nan;100503.75;5073162;28;20196;-64
2024/01/24 04:10:18;;;;;;;1.77;1.73;;;;;;;-2.02;nan;100507.00;5072583;28;20204;-64
2024/01/24 04:12:44;;;;;;;0.97;0.97;;;;;;;-2.04;nan;100508.63;5072808;28;20196;-63
2024/01/24 04:15:11;;;;;;;1.63;1.63;;;;;;;-2.03;nan;100505.28;5072652;28;20192;-64
2024/01/24 04:17:38;;;;;;;1.20;1.20;;;;;;;-2.02;nan;100511.16;5072246;28;20195;-64
2024/01/24 04:20:06;;;;;;;1.63;1.63;;;;;;;-2.03;nan;100522.00;5072232;28;20250;-64
2024/01/24 04:22:33;;;;;;;1.40;1.40;;;;;;;-2.08;nan;100518.47;5072404;28;20257;-64
2024/01/24 04:25:01;;;;;;;0.70;0.70;;;;;;;-2.08;nan;100523.50;5072121;28;20705;-64
2024/01/24 04:27:28;;;;;;;0.80;0.80;;;;;;;-2.10;nan;100520.09;5072431;28;20196;-65
2024/01/24 04:29:55;;;;;;;1.43;1.43;;;;;;;-2.08;nan;100524.38;5071879;28;20235;-64
2024/01/24 04:32:21;;;;;;;1.47;1.37;;;;;;;-2.03;nan;100525.38;5072006;28;20249;-64
2024/01/24 04:34:48;;;;;;;5.60;1.27;;;;;;;-2.05;nan;100524.47;5068072;28;20717;-64
2024/01/24 04:37:15;;;;;;;0.90;0.90;;;;;;;-2.03;nan;100527.03;5072052;28;20281;-64
2024/01/24 04:39:41;;;;;;;1.03;1.03;;;;;;;-2.00;nan;100527.19;5072064;28;20196;-64
2024/01/24 04:42:10;;;;;;;0.60;0.60;;;;;;;-1.98;nan;100525.56;5071839;28;20253;-64
2024/01/24 04:44:37;;;;;;;0.93;0.93;;;;;;;-1.98;nan;100515.53;5071151;28;20216;-64
2024/01/24 04:47:04;;;;;;;0.90;0.90;;;;;;;-1.97;nan;100524.78;5070579;28;20676;-64
2024/01/24 04:49:30;;;;;;;1.40;1.40;;;;;;;-1.97;nan;100529.81;5071792;28;20259;-64
2024/01/24 04:51:57;;;;;;;0.83;0.83;;;;;;;-1.97;nan;100527.28;5071744;28;20624;-64
2024/01/24 04:54:24;;;;;;;1.27;1.27;;;;;;;-1.95;nan;100525.69;5071590;28;20196;-64
2024/01/24 04:56:50;;;;;;;0.90;0.90;;;;;;;-2.02;nan;100523.72;5071313;28;20258;-64
2024/01/24 04:59:19;;;;;;;0.80;0.80;;;;;;;-1.95;nan;100535.72;5071528;28;20203;-64
2024/01/24 05:01:48;;;;;;;1.20;1.20;;;;;;;-1.92;nan;100533.31;5071528;28;20199;-64
2024/01/24 05:04:14;;;;;;;0.80;0.80;;;;;;;-2.03;nan;100511.94;5071419;28;20199;-64
2024/01/24 05:06:41;;;;;;;1.10;1.10;;;;;;;-1.89;nan;100530.94;5071152;28;20197;-64
2024/01/24 05:09:08;;;;;;;1.27;1.27;;;;;;;-1.89;nan;100530.94;5070899;28;20676;-64
2024/01/24 05:11:35;;;;;;;1.00;1.00;;;;;;;-1.90;nan;100536.75;5070803;28;20245;-64
2024/01/24 05:14:02;;;;;;;2.00;1.90;;;;;;;-1.90;nan;100534.22;5071500;28;20199;-63
2024/01/24 05:16:30;;;;;;;0.97;0.97;;;;;;;-1.88;nan;100542.72;5071507;28;20816;-64
2024/01/24 05:18:57;;;;;;;1.00;1.00;;;;;;;-1.91;nan;100548.47;5071266;28;20232;-64
2024/01/24 05:21:24;;;;;;;0.87;0.87;;;;;;;-2.03;nan;100534.56;5071002;28;20200;-64
2024/01/24 05:23:52;;;;;;;1.67;1.67;;;;;;;-1.88;nan;100542.72;5071038;28;20238;-64
2024/01/24 05:26:18;;;;;;;1.90;1.83;;;;;;;-1.90;nan;100551.81;5070698;28;20239;-64
2024/01/24 05:28:45;;;;;;;6.40;1.20;;;;;;;-1.92;nan;100555.94;5071281;28;20273;-64
2024/01/24 05:31:12;;;;;;;1.17;1.17;;;;;;;-1.90;nan;100554.34;5070543;28;20668;-64
2024/01/24 05:33:40;;;;;;;0.80;0.80;;;;;;;-1.90;nan;100550.16;5070890;28;20228;-63
2024/01/24 05:36:07;;;;;;;0.93;0.93;;;;;;;-1.82;nan;100556.34;5071066;28;20745;-64
2024/01/24 05:38:34;;;;;;;0.87;0.87;;;;;;;-1.78;nan;100554.81;5070400;28;20199;-64
2024/01/24 05:41:00;;;;;;;1.27;1.27;;;;;;;-1.69;nan;100553.50;5070951;28;20765;-64
2024/01/24 05:43:27;;;;;;;1.00;1.00;;;;;;;-1.49;nan;100554.22;5070367;28;20297;-64
2024/01/24 05:45:54;;;;;;;1.37;1.37;;;;;;;-1.29;nan;100550.75;5066950;28;20216;-64
2024/01/24 05:48:21;;;;;;;1.07;1.07;;;;;;;-1.11;nan;100558.09;5070562;28;20569;-63
2024/01/24 05:50:49;;;;;;;1.43;1.43;;;;;;;-0.87;nan;100558.09;5070276;28;20200;-61
2024/01/24 05:53:15;;;;;;;0.70;0.70;;;;;;;-0.69;nan;100557.03;5070283;28;20340;-60
2024/01/24 05:55:42;;;;;;;0.90;0.90;;;;;;;-0.52;nan;100552.56;5070261;28;20203;-61
2024/01/24 05:58:09;;;;;;;0.90;0.90;;;;;;;-0.34;nan;100542.19;5070393;28;20200;-61
2024/01/24 06:00:36;;;;;;;0.70;0.70;;;;;;;-0.23;nan;100554.34;5072963;28;20225;-61
2024/01/24 06:03:03;;;;;;;0.80;0.80;;;;;;;-0.02;nan;100537.34;5073384;28;20207;-61
2024/01/24 06:05:29;;;;;;;2.47;0.90;;;;;;;0.30;nan;100553.44;5068580;28;20224;-64
2024/01/24 06:07:57;;;;;;;0.80;0.80;;;;;;;0.41;nan;100546.19;5065180;28;20286;-64
2024/01/24 06:10:24;;;;;;;0.80;0.80;;;;;;;0.59;nan;100560.97;5069772;28;20200;-64
2024/01/24 06:12:51;;;;;;;0.80;0.80;;;;;;;0.78;nan;100566.56;5068019;28;20216;-63
2024/01/24 06:15:18;;;;;;;0.70;0.70;;;;;;;0.85;nan;100567.59;5070288;28;20226;-63
2024/01/24 06:17:45;;;;;;;0.90;0.90;;;;;;;1.01;nan;100559.63;5069276;28;20253;-63
2024/01/24 06:20:13;;;;;;;0.97;0.97;;;;;;;1.09;nan;100567.41;5070033;28;20254;-64
2024/01/24 06:22:40;;;;;;;0.83;0.83;;;;;;;1.15;nan;100578.53;5069883;28;20200;-64
2024/01/24 06:25:09;;;;;;;0.73;0.73;;;;;;;1.19;nan;100579.47;5068749;28;20280;-64
2024/01/24 06:27:36;;;;;;;1.17;1.17;;;;;;;1.27;nan;100585.56;5071398;28;20287;-64
2024/01/24 06:30:04;;;;;;;0.70;0.70;;;;;;;1.45;nan;100583.53;5067830;28;20207;-64
2024/01/24 06:32:30;;;;;;;0.60;0.60;;;;;;;1.64;nan;100583.16;5068597;28;20755;-64
2024/01/24 06:34:58;;;;;;;0.80;0.80;;;;;;;1.65;nan;100562.09;5063318;28;20199;-64
2024/01/24 06:37:24;;;;;;;1.03;1.03;;;;;;;1.81;nan;100578.50;5063607;28;20219;-64
2024/01/24 06:39:51;;;;;;;0.70;0.70;;;;;;;1.86;nan;100575.25;5061954;28;20216;-61
2024/01/24 06:42:19;;;;;;;0.80;0.80;;;;;;;1.96;nan;100579.72;5067806;28;20227;-65
2024/01/24 06:44:46;;;;;;;0.97;0.97;;;;;;;1.98;nan;100573.00;5069029;28;20258;-66
2024/01/24 06:47:13;;;;;;;0.90;0.90;;;;;;;2.09;nan;100581.72;5068007;28;20200;-64
2024/01/24 06:49:40;;;;;;;1.67;1.67;;;;;;;2.01;nan;100557.91;5068500;28;20200;-64
2024/01/24 06:52:07;;;;;;;1.20;1.20;;;;;;;2.13;nan;100573.34;5069136;28;20660;-63
2024/01/24 06:54:35;;;;;;;0.70;0.70;;;;;;;2.21;nan;100565.06;5066972;28;20260;-62
2024/01/24 06:57:03;;;;;;;0.70;0.70;;;;;;;2.26;nan;100573.63;5069117;28;20674;-63
2024/01/24 06:59:31;;;;;;;0.70;0.70;;;;;;;2.34;nan;100579.69;5068552;28;20254;-62
2024/01/24 07:01:59;;;;;;;0.70;0.70;;;;;;;2.37;nan;100584.81;5069452;28;20629;-62
2024/01/24 07:04:26;;;;;;;0.80;0.80;;;;;;;2.43;nan;100587.50;5066503;28;20257;-64
2024/01/24 07:06:52;;;;;;;1.53;1.53;;;;;;;2.48;nan;100591.84;5067582;28;20338;-64
2024/01/24 07:09:19;;;;;;;1.67;1.67;;;;;;;2.48;nan;100598.59;5068502;28;20250;-64
2024/01/24 07:11:46;;;;;;;1.07;1.07;;;;;;;2.48;nan;100591.00;5067050;28;20200;-64
2024/01/24 07:14:14;;;;;;;0.90;0.90;;;;;;;2.51;nan;100596.13;5065356;28;20688;-63
2024/01/24 07:16:43;;;;;;;0.60;0.60;;;;;;;2.52;nan;100597.84;5069534;28;20241;-63
2024/01/24 07:19:10;;;;;;;0.73;0.73;;;;;;;2.60;nan;100603.91;5068779;28;20214;-63
2024/01/24 07:21:36;;;;;;;0.70;0.70;;;;;;;2.58;nan;100593.75;5067507;28;20266;-63
2024/01/24 07:24:04;;;;;;;1.83;1.77;;;;;;;2.63;nan;100596.34;5071367;28;20208;-63
2024/01/24 07:26:31;;;;;;;1.23;1.13;;;;;;;2.73;nan;100598.25;5070767;28;20243;-63
2024/01/24 07:28:57;;;;;;;0.93;0.93;;;;;;;2.83;nan;100605.22;5070394;28;20200;-63
2024/01/24 07:31:24;;;;;;;0.70;0.70;;;;;;;2.91;nan;100603.69;5071092;28;20702;-64
2024/01/24 07:33:52;;;;;;;1.00;1.00;;;;;;;2.93;nan;100602.06;5071841;28;20657;-63
2024/01/24 07:36:21;;;;;;;1.43;1.43;;;;;;;3.03;nan;100603.94;5071721;28;20695;-63
2024/01/24 07:38:47;;;;;;;1.60;1.13;;;;;;;3.03;nan;100609.00;5072015;28;20204;-63
2024/01/24 07:41:14;;;;;;;0.80;0.80;;;;;;;3.16;nan;100617.69;5072417;28;20232;-62
2024/01/24 07:43:41;;;;;;;0.77;0.77;;;;;;;3.28;nan;100615.38;5071634;28;20200;-63
2024/01/24 07:46:09;;;;;;;0.90;0.90;;;;;;;3.29;nan;100616.25;5070411;28;20590;-63
2024/01/24 07:48:36;;;;;;;1.10;1.10;;;;;;;3.25;nan;100604.34;5070107;28;20236;-62
2024/01/24 07:51:05;;;;;;;0.73;0.73;;;;;;;3.37;nan;100620.63;5070651;28;20719;-63
2024/01/24 07:53:32;;;;;;;1.30;1.30;;;;;;;3.40;nan;100625.75;5071212;28;20216;-63
2024/01/24 07:55:59;;;;;;;1.37;1.37;;;;;;;3.49;nan;100618.28;5070233;28;20621;-64
2024/01/24 07:58:27;;;;;;;0.90;0.90;;;;;;;3.50;nan;100624.22;5070947;28;20663;-64
2024/01/24 08:00:54;;;;;;;0.70;0.70;;;;;;;3.60;nan;100623.56;5068815;28;20709;-63
2024/01/24 08:03:21;;;;;;;0.77;0.77;;;;;;;3.70;nan;100615.28;5070644;28;20238;-63
2024/01/24 08:05:48;;;;;;;0.83;0.83;;;;;;;3.84;nan;100624.00;5069705;28;20220;-63
2024/01/24 08:08:16;;;;;;;0.67;0.67;;;;;;;3.98;nan;100625.03;5068667;28;20683;-63
2024/01/24 08:10:42;;;;;;;1.17;1.17;;;;;;;4.08;nan;100624.38;5069351;28;20257;-64
2024/01/24 08:13:09;;;;;;;0.80;0.80;;;;;;;4.24;nan;100636.44;5069753;28;20610;-63
2024/01/24 08:15:36;;;;;;;0.90;0.90;;;;;;;4.33;nan;100634.91;5069252;28;20249;-63
2024/01/24 08:18:02;;;;;;;0.70;0.70;;;;;;;4.47;nan;100646.09;5070727;28;20208;-63
2024/01/24 08:20:29;;;;;;;0.70;0.70;;;;;;;4.48;nan;100645.25;5070980;28;20737;-64
2024/01/24 08:22:56;;;;;;;0.90;0.90;;;;;;;4.57;nan;100635.22;5068567;28;20281;-64
2024/01/24 08:25:25;;;;;;;0.60;0.60;;;;;;;4.59;nan;100638.63;5069297;28;20196;-63
2024/01/24 08:27:52;;;;;;;0.80;0.80;;;;;;;4.72;nan;100656.59;5070101;28;20230;-64
2024/01/24 08:30:19;;;;;;;0.90;0.90;;;;;;;4.72;nan;100645.59;5069771;28;20204;-63
2024/01/24 08:32:46;;;;;;;1.07;1.07;;;;;;;4.79;nan;100660.06;5065825;28;20231;-63
2024/01/24 08:35:13;;;;;;;0.70;0.70;;;;;;;4.86;nan;100654.25;5066892;28;20208;-64
2024/01/24 08:37:40;;;;;;;1.60;0.80;;;;;;;4.94;nan;100665.38;5063326;28;20197;-64
2024/01/24 08:40:10;;;;;;;0.70;0.70;;;;;;;4.97;nan;100662.88;5068707;28;20203;-63
2024/01/24 08:42:41;;;;;;;0.70;0.70;;;;;;;5.01;nan;100662.06;5069812;28;20200;-63
2024/01/24 08:45:09;;;;;;;0.67;0.67;;;;;;;5.05;nan;100661.25;5067645;28;20231;-65
2024/01/24 08:47:36;;;;;;;0.87;0.87;;;;;;;5.12;nan;100665.59;5069281;28;20211;-65
2024/01/24 08:50:04;;;;;;;1.30;0.83;;;;;;;5.16;nan;100669.88;5069763;28;20204;-65
2024/01/24 08:52:31;;;;;;;0.97;0.97;;;;;;;5.21;nan;100663.16;5069374;28;20200;-65
2024/01/24 08:54:58;;;;;;;0.70;0.70;;;;;;;5.27;nan;100664.91;5068883;28;20201;-66
2024/01/24 08:57:25;;;;;;;0.90;0.90;;;;;;;5.37;nan;100665.84;5068731;28;20245;-65
2024/01/24 08:59:53;;;;;;;1.63;1.57;;;;;;;5.42;nan;100666.78;5066745;28;20195;-65
2024/01/24 09:02:20;;;;;;;1.07;1.07;;;;;;;5.42;nan;100664.25;5066360;28;20261;-64
2024/01/24 09:04:50;;;;;;;0.80;0.80;;;;;;;5.53;nan;100670.28;5067814;28;20238;-65
2024/01/24 09:07:19;;;;;;;0.80;0.80;;;;;;;5.51;nan;100656.69;5066767;28;20290;-65
2024/01/24 09:09:49;;;;;;;3.30;1.03;;;;;;;5.66;nan;100654.28;5066780;28;20291;-65
2024/01/24 09:12:15;;;;;;;6.00;1.03;;;;;;;5.72;nan;100656.91;5066519;28;20269;-65
2024/01/24 09:14:44;;;;;;;4.37;1.43;;;;;;;5.76;nan;100648.47;5068839;28;20262;-65
2024/01/24 09:17:12;;;;;;;1.47;1.47;;;;;;;5.82;nan;100643.41;5066783;28;20196;-65
2024/01/24 09:19:40;;;;;;;0.87;0.87;;;;;;;5.91;nan;100643.56;5068417;28;20204;-65
2024/01/24 09:22:07;;;;;;;1.07;1.07;;;;;;;5.94;nan;100628.31;5066462;28;20236;-65
2024/01/24 09:24:33;;;;;;;1.37;1.37;;;;;;;6.03;nan;100633.47;5067564;28;20647;-65
2024/01/24 09:27:00;;;;;;;1.07;1.07;;;;;;;6.03;nan;100623.28;5066579;28;20223;-65
2024/01/24 09:29:28;;;;;;;2.10;2.00;;;;;;;6.11;nan;100626.72;5066371;28;20261;-65
2024/01/24 09:31:54;;;;;;;1.17;1.17;;;;;;;6.16;nan;100622.53;5065936;28;20200;-67
2024/01/24 09:34:26;;;;;;;2.60;2.33;;;;;;;6.28;nan;100622.63;5067203;28;20228;-66
2024/01/24 09:36:53;;;;;;;1.20;1.10;;;;;;;6.36;nan;100626.91;5063684;28;20204;-66
2024/01/24 09:39:20;;;;;;;1.63;1.40;;;;;;;6.33;nan;100628.56;5067575;28;20223;-66
2024/01/24 09:41:51;;;;;;;1.03;1.00;;;;;;;6.36;nan;100620.13;5067314;28;20207;-67
2024/01/24 09:44:19;;;;;;;0.90;0.90;;;;;;;6.45;nan;100629.50;5066428;28;20226;-67
2024/01/24 09:46:49;;;;;;;4.93;1.97;;;;;;;6.45;nan;100611.69;5067238;28;20308;-67
2024/01/24 09:49:17;;;;;;;2.83;1.73;;;;;;;6.60;nan;100620.25;5068322;28;20269;-67
2024/01/24 09:51:47;;;;;;;1.23;1.23;;;;;;;6.69;nan;100627.09;5067437;28;20203;-67
2024/01/24 09:54:15;;;;;;;1.83;1.30;;;;;;;6.74;nan;100620.34;5066318;28;20204;-67
2024/01/24 09:56:44;;;;;;;4.13;1.67;;;;;;;6.80;nan;100615.25;5066164;28;20273;-68
2024/01/24 09:59:13;;;;;;;1.77;1.67;;;;;;;6.85;nan;100614.41;5067831;28;20270;-68
2024/01/24 10:01:41;;;;;;;1.07;1.07;;;;;;;6.80;nan;100599.97;5066978;28;20279;-68
2024/01/24 10:04:09;;;;;;;1.47;1.47;;;;;;;6.96;nan;100600.88;5065828;28;20207;-67
2024/01/24 10:06:39;;;;;;;3.00;2.17;;;;;;;6.97;nan;100593.25;5067477;28;20665;-67
2024/01/24 10:09:07;;;;;;;2.00;1.90;;;;;;;7.02;nan;100595.78;5068738;28;20204;-68
2024/01/24 10:11:34;;;;;;;2.27;2.10;;;;;;;7.05;nan;100596.66;5065394;28;20294;-67
2024/01/24 10:14:01;;;;;;;1.23;1.23;;;;;;;7.02;nan;100575.41;5064505;28;20204;-68
2024/01/24 10:16:28;;;;;;;1.00;1.00;;;;;;;7.02;nan;100568.59;5068290;28;20196;-65
2024/01/24 10:18:55;;;;;;;1.23;1.23;;;;;;;7.18;nan;100584.78;5065699;28;20285;-65
2024/01/24 10:21:22;;;;;;;1.10;1.10;;;;;;;7.13;nan;100582.25;5067690;28;20227;-65
2024/01/24 10:23:49;;;;;;;0.83;0.83;;;;;;;7.18;nan;100572.91;5067127;28;20253;-65
2024/01/24 10:26:17;;;;;;;0.80;0.80;;;;;;;7.20;nan;100557.59;5068480;28;20210;-65
2024/01/24 10:28:44;;;;;;;1.20;1.20;;;;;;;7.19;nan;100546.56;5067528;28;20273;-65
2024/01/24 10:31:11;;;;;;;1.03;0.90;;;;;;;7.28;nan;100559.31;5069039;28;20253;-65
2024/01/24 10:33:38;;;;;;;2.90;1.23;;;;;;;7.22;nan;100544.00;5065983;28;20246;-65
2024/01/24 10:36:07;;;;;;;2.23;1.27;;;;;;;7.35;nan;100561.03;5065886;28;20660;-65
2024/01/24 10:38:36;;;;;;;1.33;1.30;;;;;;;7.45;nan;100545.72;5067008;28;20200;-65
2024/01/24 10:41:03;;;;;;;4.60;1.57;;;;;;;7.44;nan;100549.13;5066415;28;20211;-65
2024/01/24 10:43:35;;;;;;;1.17;1.17;;;;;;;7.49;nan;100550.00;5067177;28;20200;-65
2024/01/24 10:46:03;;;;;;;4.47;1.60;;;;;;;7.52;nan;100545.75;5066801;28;20687;-65
2024/01/24 10:48:31;;;;;;;1.93;1.83;;;;;;;7.58;nan;100542.34;5068423;28;20223;-65
2024/01/24 10:50:59;;;;;;;2.40;2.30;;;;;;;7.52;nan;100527.88;5067648;28;20204;-64
2024/01/24 10:53:26;;;;;;;1.40;1.30;;;;;;;7.59;nan;100526.19;5068759;28;20208;-65
2024/01/24 10:55:54;;;;;;;0.93;0.93;;;;;;;7.62;nan;100528.72;5064560;28;20287;-68
2024/01/24 10:58:22;;;;;;;1.53;1.43;;;;;;;7.70;nan;100527.88;5068554;28;20192;-66
2024/01/24 11:00:52;;;;;;;1.10;1.00;;;;;;;7.70;nan;100527.88;5073284;28;20212;-65
2024/01/24 11:03:19;;;;;;;7.23;1.63;;;;;;;7.74;nan;100523.63;5072674;28;20253;-65
2024/01/24 11:05:48;;;;;;;1.67;1.67;;;;;;;7.78;nan;100522.75;5073196;28;20204;-65
2024/01/24 11:08:25;;;;;;;1.13;1.13;;;;;;;7.77;nan;100513.41;5073166;28;20280;-65
2024/01/24 11:10:56;;;;;;;2.20;1.43;;;;;;;7.78;nan;100517.66;5071914;28;20212;-66
2024/01/24 11:13:24;;;;;;;2.47;1.50;;;;;;;7.70;nan;100506.59;5070672;28;20629;-65
2024/01/24 11:15:55;;;;;;;1.27;1.27;;;;;;;7.75;nan;100515.13;5073192;28;20261;-65
2024/01/24 11:18:24;;;;;;;1.67;1.57;;;;;;;7.76;nan;100506.59;5071905;28;20224;-65
2024/01/24 11:20:55;;;;;;;2.07;1.97;;;;;;;7.71;nan;100508.31;5072614;28;20200;-65
2024/01/24 11:23:43;;;;;;;2.20;1.93;;;;;;;7.70;nan;100498.94;5069509;28;20200;-65
2024/01/24 11:26:11;;;;;;;1.47;1.47;;;;;;;7.77;nan;100491.28;5068430;28;20706;-65
2024/01/24 11:28:38;;;;;;;1.63;1.53;;;;;;;7.74;nan;100498.09;5067324;28;20216;-65
2024/01/24 11:31:07;;;;;;;1.15;1.15;;;;;;;7.76;nan;100489.56;5071184;28;20437;-62
2024/01/24 11:33:35;;;;;;;2.22;2.03;;;;;;;7.80;nan;100477.66;5070816;28;20446;-64
2024/01/24 11:36:03;;;;;;;1.20;1.20;;;;;;;7.91;nan;100470.84;5073775;28;20258;-64
2024/01/24 11:38:34;;;;;;;1.37;1.20;;;;;;;7.90;nan;100474.25;5071908;28;20691;-64
2024/01/24 11:41:03;;;;;;;1.73;1.63;;;;;;;7.96;nan;100484.44;5069629;28;20196;-64
2024/01/24 11:43:31;;;;;;;1.70;1.60;;;;;;;7.99;nan;100470.78;5073280;28;20639;-64
2024/01/24 11:46:01;;;;;;;1.00;1.00;;;;;;;8.01;nan;100472.53;5069413;28;20200;-64
2024/01/24 11:48:31;;;;;;;1.20;1.20;;;;;;;8.03;nan;100465.69;5071958;28;20245;-64